Terminal Aerodrome Forecast
Issued by NWS Sioux Falls, SD

Home | Current Version | Previous Version | Text Only | Print | Product List | Glossary On
Versions: 1 2 3 4 5 6 7 8 9 10 11 12 13 14 15 16 17 18 19 20 21 22 23 24 25 26
000
FTUS43 KFSD 102328
TAFSUX
TAF
KSUX 102328Z 1100/1124 13011KT P6SM OVC040
      TEMPO 1101/1103 2SM -SN OVC030
     FM110500 13011KT P6SM OVC035
     FM110900 13009KT P6SM OVC050
     FM111100 VRB05KT P6SM OVC015
     FM111500 32009KT P6SM OVC015
     FM111900 32015G23KT P6SM OVC035
     FM112300 32014KT P6SM SCT200=

USA.gov is the U.S. government's official web portal to all federal, state and local government web resources and services.